Time;durP1;ratioP1;P1;durP2;ratioP2;P2;SDS_P1;SDS_P2;PMS_P1;PMS_P2;Temp;Humidity;BMP_temperature;BMP_pressure;BME280_temperature;BME280_humidity;BME280_pressure;Samples;Min_cycle;Max_cycle;Signal;HPM_P1;HPM_P2
2023/08/21 00:01:42;;;;;;;16.05;12.68;;;;;;;24.18;nan;100784.00;5023752;28;20029;-72
2023/08/21 00:04:07;;;;;;;15.82;12.55;;;;;;;24.19;nan;100791.00;5027062;28;20025;-68
2023/08/21 00:06:33;;;;;;;15.05;12.48;;;;;;;24.11;nan;100775.56;5019719;28;20076;-68
2023/08/21 00:08:58;;;;;;;19.42;13.68;;;;;;;24.16;nan;100784.31;5021215;28;20014;-68
2023/08/21 00:11:23;;;;;;;24.48;14.88;;;;;;;24.05;nan;100779.50;5024537;28;20037;-68
2023/08/21 00:13:49;;;;;;;15.48;13.73;;;;;;;24.05;nan;100779.50;5023315;28;20103;-67
2023/08/21 00:16:17;;;;;;;15.75;13.23;;;;;;;23.94;nan;100777.06;5021770;28;20145;-71
2023/08/21 00:18:43;;;;;;;14.37;12.53;;;;;;;23.88;nan;100772.09;5022877;28;20033;-67
2023/08/21 00:21:08;;;;;;;16.67;12.65;;;;;;;23.86;nan;100774.28;5023515;28;20072;-67
2023/08/21 00:23:34;;;;;;;18.60;13.75;;;;;;;23.90;nan;100792.22;5019336;28;20125;-71
2023/08/21 00:25:59;;;;;;;15.77;13.30;;;;;;;23.80;nan;100776.31;5021917;28;20037;-67
2023/08/21 00:28:25;;;;;;;14.88;13.10;;;;;;;23.80;nan;100792.47;5022096;28;20080;-67
2023/08/21 00:30:50;;;;;;;15.65;12.73;;;;;;;23.69;nan;100781.09;5022731;28;20765;-68
2023/08/21 00:33:15;;;;;;;18.33;13.57;;;;;;;23.63;nan;100781.50;5022599;28;20059;-67
2023/08/21 00:35:42;;;;;;;14.32;12.82;;;;;;;23.55;nan;100778.44;5023169;28;20033;-67
2023/08/21 00:38:08;;;;;;;16.23;13.05;;;;;;;23.62;nan;100793.38;5022055;28;20116;-68
2023/08/21 00:40:33;;;;;;;19.27;13.15;;;;;;;23.44;nan;100777.09;5019211;28;20034;-67
2023/08/21 00:42:59;;;;;;;20.85;13.88;;;;;;;23.51;nan;100784.72;5023600;28;20040;-69
2023/08/21 00:45:24;;;;;;;18.92;13.75;;;;;;;23.50;nan;100792.00;5021580;28;20033;-68
2023/08/21 00:47:50;;;;;;;16.25;13.48;;;;;;;23.26;nan;100761.88;5023329;28;20030;-71
2023/08/21 00:50:16;;;;;;;19.85;14.20;;;;;;;23.40;nan;100784.16;5026101;28;20079;-68
2023/08/21 00:52:45;;;;;;;19.45;14.23;;;;;;;23.32;nan;100776.78;5024258;28;20439;-68
2023/08/21 00:55:11;;;;;;;;;;;;;;;23.34;nan;100782.66;5023238;28;20021;-72
2023/08/21 00:57:37;;;;;;;19.45;13.35;;;;;;;23.28;nan;100792.72;5021525;28;19921;-68
2023/08/21 01:00:04;;;;;;;19.25;13.80;;;;;;;23.23;nan;100782.09;5023932;28;20029;-68
2023/08/21 01:02:30;;;;;;;18.73;13.75;;;;;;;23.21;nan;100792.34;5022914;28;20059;-70
2023/08/21 01:04:55;;;;;;;18.80;13.98;;;;;;;23.17;nan;100785.19;5023313;28;20053;-70
2023/08/21 01:07:20;;;;;;;16.67;14.20;;;;;;;22.92;nan;100755.03;5023796;28;20101;-70
2023/08/21 01:09:54;;;;;;;16.42;14.45;;;;;;;23.13;nan;100785.78;5022554;28;20084;-69
2023/08/21 01:12:46;;;;;;;19.45;13.93;;;;;;;23.14;nan;100787.38;5020685;28;20028;-70
2023/08/21 01:15:13;;;;;;;20.10;14.60;;;;;;;23.05;nan;100767.66;5002562;28;20094;-68
2023/08/21 01:17:40;;;;;;;18.13;15.48;;;;;;;23.02;nan;100770.97;5004411;28;20038;-69
2023/08/21 01:20:10;;;;;;;23.30;15.23;;;;;;;22.97;nan;100772.94;5005073;28;20041;-69
2023/08/21 01:22:37;;;;;;;20.20;14.43;;;;;;;23.03;nan;100779.81;5004992;28;20018;-68
2023/08/21 01:25:07;;;;;;;16.48;14.50;;;;;;;22.96;nan;100776.69;5003708;28;20035;-70
2023/08/21 01:27:34;;;;;;;18.17;14.38;;;;;;;22.91;nan;100773.03;4983829;28;20491;-69
2023/08/21 01:30:01;;;;;;;16.95;13.90;;;;;;;22.97;nan;100787.16;5004674;28;20137;-70
2023/08/21 01:32:37;;;;;;;20.50;14.73;;;;;;;22.97;nan;100795.22;5003930;28;20045;-69
2023/08/21 01:35:04;;;;;;;17.13;13.55;;;;;;;22.93;nan;100795.00;5002301;28;20586;-69
2023/08/21 01:37:30;;;;;;;22.25;15.93;;;;;;;22.63;nan;100745.38;5004338;28;20030;-69
2023/08/21 01:39:58;;;;;;;22.20;15.88;;;;;;;22.91;nan;100791.84;5004912;28;20189;-70
2023/08/21 01:42:24;;;;;;;17.02;15.25;;;;;;;22.87;nan;100790.84;4987836;28;20161;-70
2023/08/21 01:44:49;;;;;;;21.13;16.17;;;;;;;22.86;nan;100793.81;5001586;28;20140;-70
2023/08/21 01:47:15;;;;;;;16.85;14.80;;;;;;;22.79;nan;100788.03;5001423;28;20093;-70
2023/08/21 01:49:40;;;;;;;22.20;16.27;;;;;;;22.79;nan;100783.44;5000689;28;20031;-70
2023/08/21 01:52:06;;;;;;;21.08;16.00;;;;;;;22.81;nan;100791.22;5011239;28;20457;-70
2023/08/21 01:54:31;;;;;;;18.15;16.10;;;;;;;22.71;nan;100781.47;5019824;28;20037;-71
2023/08/21 01:56:57;;;;;;;23.00;15.98;;;;;;;22.72;nan;100789.22;5023241;28;20025;-70
2023/08/21 01:59:24;;;;;;;18.00;15.93;;;;;;;22.67;nan;100792.00;5023338;28;20143;-70
2023/08/21 02:01:49;;;;;;;18.77;15.18;;;;;;;22.70;nan;100801.38;5020717;28;20061;-70
2023/08/21 02:04:14;;;;;;;19.05;15.45;;;;;;;22.65;nan;100801.44;5026978;28;20057;-71
2023/08/21 02:06:40;;;;;;;24.83;16.40;;;;;;;22.63;nan;100798.28;5020472;28;20412;-70
2023/08/21 02:09:05;;;;;;;21.65;16.10;;;;;;;22.52;nan;100785.00;5019924;28;20029;-70
2023/08/21 02:11:30;;;;;;;20.33;16.67;;;;;;;22.58;nan;100792.97;5023360;28;20037;-70
2023/08/21 02:13:56;;;;;;;22.77;17.40;;;;;;;22.60;nan;100805.03;5023580;28;20391;-70
2023/08/21 02:16:21;;;;;;;23.95;17.60;;;;;;;22.52;nan;100793.06;5021554;28;20476;-69
2023/08/21 02:18:47;;;;;;;27.35;20.48;;;;;;;22.45;nan;100795.34;5021587;28;20064;-70
2023/08/21 02:21:13;;;;;;;27.52;22.30;;;;;;;22.39;nan;100793.06;5020978;28;20025;-70
2023/08/21 02:23:38;;;;;;;34.67;25.65;;;;;;;22.33;nan;100781.59;5020972;28;20357;-70
2023/08/21 02:26:04;;;;;;;35.67;27.25;;;;;;;22.35;nan;100802.78;5022008;28;20099;-70
2023/08/21 02:28:29;;;;;;;37.80;28.10;;;;;;;22.33;nan;100795.00;5022469;28;20088;-70
2023/08/21 02:30:55;;;;;;;31.02;25.13;;;;;;;22.35;nan;100802.78;5024319;28;20064;-70
2023/08/21 02:33:20;;;;;;;31.08;23.95;;;;;;;22.26;nan;100802.63;5024288;28;20475;-70
2023/08/21 02:35:45;;;;;;;29.67;20.85;;;;;;;22.22;nan;100796.25;5024911;28;20058;-69
2023/08/21 02:38:11;;;;;;;23.88;19.23;;;;;;;22.13;nan;100784.59;5025406;28;20033;-69
2023/08/21 02:40:36;;;;;;;20.88;17.80;;;;;;;22.18;nan;100801.41;5024643;28;20033;-70
2023/08/21 02:43:02;;;;;;;27.30;18.58;;;;;;;22.14;nan;100802.28;5024386;28;20112;-70
2023/08/21 02:45:27;;;;;;;23.40;18.45;;;;;;;22.10;nan;100785.97;5024856;28;20044;-69
2023/08/21 02:47:53;;;;;;;20.60;18.40;;;;;;;22.12;nan;100797.19;5026950;28;20041;-69
2023/08/21 02:50:18;;;;;;;21.73;16.73;;;;;;;22.02;nan;100781.25;5022443;28;20025;-69
2023/08/21 02:52:43;;;;;;;20.40;17.08;;;;;;;22.08;nan;100793.53;5025719;28;20041;-69
2023/08/21 02:55:09;;;;;;;21.83;16.73;;;;;;;22.02;nan;100786.63;5025821;28;20052;-69
2023/08/21 02:57:34;;;;;;;24.10;17.42;;;;;;;22.04;nan;100789.81;5025815;28;20059;-70
2023/08/21 03:00:00;;;;;;;19.55;17.50;;;;;;;21.93;nan;100789.16;5026499;28;20022;-69
2023/08/21 03:02:25;;;;;;;24.05;18.63;;;;;;;21.93;nan;100796.41;5024462;28;20018;-69
2023/08/21 03:04:51;;;;;;;21.02;17.13;;;;;;;21.87;nan;100796.50;5025546;28;20033;-68
2023/08/21 03:07:18;;;;;;;26.70;17.15;;;;;;;21.88;nan;100792.75;5023212;28;20036;-69
2023/08/21 03:09:46;;;;;;;19.23;16.92;;;;;;;21.86;nan;100802.97;5025068;28;20028;-69
2023/08/21 03:12:12;;;;;;;21.90;18.63;;;;;;;21.80;nan;100793.38;5023218;28;20029;-69
2023/08/21 03:14:37;;;;;;;25.08;17.30;;;;;;;21.74;nan;100794.56;5023978;28;20017;-69
2023/08/21 03:17:03;;;;;;;21.90;17.05;;;;;;;21.75;nan;100804.19;5022937;28;20043;-69
2023/08/21 03:19:28;;;;;;;20.58;16.63;;;;;;;21.69;nan;100799.97;5023038;28;20179;-69
2023/08/21 03:21:54;;;;;;;23.35;17.23;;;;;;;21.57;nan;100783.53;5023420;28;20030;-68
2023/08/21 03:24:20;;;;;;;23.70;17.83;;;;;;;21.59;nan;100792.88;5023221;28;20026;-68
2023/08/21 03:26:45;;;;;;;21.80;17.33;;;;;;;21.68;nan;100809.09;5023266;28;20368;-68
2023/08/21 03:29:10;;;;;;;26.13;18.45;;;;;;;21.66;nan;100811.28;5024655;28;20061;-68
2023/08/21 03:31:36;;;;;;;23.10;18.52;;;;;;;21.62;nan;100807.56;5023081;28;20036;-68
2023/08/21 03:34:02;;;;;;;24.00;19.70;;;;;;;21.61;nan;100814.03;5021795;28;20033;-69
2023/08/21 03:36:33;;;;;;;26.10;20.55;;;;;;;21.58;nan;100807.38;5026721;28;20022;-69
2023/08/21 03:39:01;;;;;;;26.90;19.67;;;;;;;21.55;nan;100813.31;5022639;28;20029;-69
2023/08/21 03:41:27;;;;;;;22.88;17.83;;;;;;;21.42;nan;100804.06;5024017;28;20033;-69
2023/08/21 03:43:53;;;;;;;24.83;18.00;;;;;;;21.39;nan;100809.19;5024413;28;20391;-69
2023/08/21 03:46:19;;;;;;;23.45;17.83;;;;;;;21.36;nan;100813.25;5022174;28;20090;-69
2023/08/21 03:48:44;;;;;;;20.98;17.42;;;;;;;21.31;nan;100826.72;5024919;28;20904;-69
2023/08/21 03:51:10;;;;;;;22.33;17.70;;;;;;;21.28;nan;100803.16;5020752;28;20368;-70
2023/08/21 03:53:35;;;;;;;18.38;16.38;;;;;;;21.37;nan;100819.41;5025297;28;20569;-69
2023/08/21 03:56:01;;;;;;;22.45;16.80;;;;;;;21.32;nan;100812.22;5024963;28;20612;-69
2023/08/21 03:58:26;;;;;;;21.80;16.23;;;;;;;21.33;nan;100818.38;5023454;28;20032;-69
2023/08/21 04:00:52;;;;;;;26.60;18.10;;;;;;;21.30;nan;100822.41;5020375;28;20026;-70
2023/08/21 04:03:18;;;;;;;21.55;16.83;;;;;;;21.24;nan;100821.69;5025635;28;20056;-68
2023/08/21 04:05:43;;;;;;;21.73;17.08;;;;;;;21.17;nan;100826.59;5024103;28;20103;-69
2023/08/21 04:08:09;;;;;;;25.58;16.50;;;;;;;21.15;nan;100819.94;5020369;28;20018;-69
2023/08/21 04:10:34;;;;;;;22.77;17.02;;;;;;;21.23;nan;100824.66;5023873;28;20025;-69
2023/08/21 04:13:00;;;;;;;24.55;17.40;;;;;;;21.19;nan;100831.66;5022176;28;20041;-70
2023/08/21 04:15:26;;;;;;;19.58;16.20;;;;;;;21.23;nan;100830.78;5023596;28;20025;-69
2023/08/21 04:17:51;;;;;;;20.73;16.52;;;;;;;21.27;nan;100839.06;5020659;28;20025;-69
2023/08/21 04:20:19;;;;;;;19.80;15.93;;;;;;;21.24;nan;100836.97;5023323;28;20503;-70
2023/08/21 04:22:44;;;;;;;23.25;16.65;;;;;;;21.21;nan;100824.13;5022780;28;20033;-70
2023/08/21 04:25:11;;;;;;;23.45;16.75;;;;;;;21.28;nan;100834.50;5023241;28;20742;-70
2023/08/21 04:27:36;;;;;;;24.20;17.13;;;;;;;21.26;nan;100829.44;5023770;28;20017;-71
2023/08/21 04:30:02;;;;;;;21.30;16.58;;;;;;;21.31;nan;100834.75;5022953;28;20040;-71
2023/08/21 04:32:27;;;;;;;21.70;16.55;;;;;;;21.40;nan;100841.06;5021726;28;20021;-70
2023/08/21 04:34:53;;;;;;;25.52;16.67;;;;;;;21.42;nan;100836.22;5022293;28;20021;-71
2023/08/21 04:37:18;;;;;;;23.98;17.05;;;;;;;21.38;nan;100837.88;5020802;28;20022;-71
2023/08/21 04:39:45;;;;;;;23.17;16.67;;;;;;;21.43;nan;100835.16;5019216;28;20056;-71
2023/08/21 04:42:11;;;;;;;22.83;17.48;;;;;;;21.42;nan;100832.75;5020565;28;20017;-71
2023/08/21 04:44:36;;;;;;;22.05;16.70;;;;;;;21.55;nan;100856.19;5017259;28;20029;-70
2023/08/21 04:47:28;;;;;;;23.83;17.73;;;;;;;21.57;nan;100843.31;5021433;28;20579;-68
2023/08/21 04:49:54;;;;;;;20.27;16.63;;;;;;;21.65;nan;100855.25;5023048;28;20025;-70
2023/08/21 04:52:21;;;;;;;21.83;16.60;;;;;;;21.66;nan;100852.28;5021345;28;20457;-70
2023/08/21 04:54:50;;;;;;;20.52;16.98;;;;;;;21.70;nan;100846.34;5023984;28;20025;-69
2023/08/21 04:57:17;;;;;;;18.15;16.23;;;;;;;21.80;nan;100860.41;5021494;28;20381;-70
2023/08/21 04:59:42;;;;;;;19.33;16.65;;;;;;;21.80;nan;100854.25;5022933;28;20083;-69
2023/08/21 05:02:08;;;;;;;22.42;16.58;;;;;;;21.86;nan;100853.91;5019108;28;20855;-69
2023/08/21 05:04:36;;;;;;;21.20;17.20;;;;;;;21.92;nan;100859.19;5024012;28;20767;-71
2023/08/21 05:07:01;;;;;;;23.55;16.15;;;;;;;21.97;nan;100859.13;5021766;28;20376;-70
2023/08/21 05:09:27;;;;;;;21.85;16.02;;;;;;;22.04;nan;100862.22;5023759;28;20033;-70
2023/08/21 05:11:54;;;;;;;18.40;16.00;;;;;;;22.09;nan;100859.47;5020854;28;20032;-70
2023/08/21 05:14:19;;;;;;;21.83;17.08;;;;;;;22.08;nan;100857.88;5023396;28;20034;-70
2023/08/21 05:16:45;;;;;;;21.30;16.73;;;;;;;22.24;nan;100855.78;5019399;28;20041;-69
2023/08/21 05:19:11;;;;;;;22.52;16.25;;;;;;;22.31;nan;100866.94;5021515;28;20036;-68
2023/08/21 05:21:36;;;;;;;21.77;16.83;;;;;;;22.33;nan;100862.09;5017434;28;20041;-69
2023/08/21 05:24:02;;;;;;;22.70;17.00;;;;;;;22.46;nan;100871.28;5023845;28;20029;-69
2023/08/21 05:26:27;;;;;;;21.67;16.13;;;;;;;22.52;nan;100876.25;5021399;28;20418;-69
2023/08/21 05:28:53;;;;;;;17.70;15.90;;;;;;;22.63;nan;100876.91;5021655;28;20259;-69
2023/08/21 05:31:18;;;;;;;18.48;16.15;;;;;;;22.60;nan;100869.44;5020616;28;20021;-69
2023/08/21 05:33:43;;;;;;;19.00;15.75;;;;;;;22.72;nan;100874.31;5018532;28;20029;-67
2023/08/21 05:36:09;;;;;;;19.30;15.68;;;;;;;22.76;nan;100867.28;5020526;28;20068;-68
2023/08/21 05:38:34;;;;;;;17.30;15.25;;;;;;;22.73;nan;100855.25;5017674;28;20065;-67
2023/08/21 05:41:00;;;;;;;23.90;15.65;;;;;;;22.91;nan;100876.94;5017375;28;20033;-69
2023/08/21 05:43:26;;;;;;;21.02;16.67;;;;;;;22.97;nan;100869.63;5021784;28;20113;-70
2023/08/21 05:45:51;;;;;;;20.48;15.13;;;;;;;23.03;nan;100863.88;5021258;28;20873;-69
2023/08/21 05:48:17;;;;;;;22.20;15.63;;;;;;;23.10;nan;100861.59;5022357;28;20078;-69
2023/08/21 05:50:43;;;;;;;24.42;16.15;;;;;;;23.14;nan;100857.22;5018480;28;20021;-68
2023/08/21 05:53:08;;;;;;;27.42;15.93;;;;;;;23.13;nan;100839.50;5018796;28;20041;-69
2023/08/21 05:55:36;;;;;;;19.10;15.18;;;;;;;23.42;nan;100872.56;5021221;28;20037;-70
2023/08/21 05:58:01;;;;;;;23.15;15.07;;;;;;;23.47;nan;100875.94;5023129;28;20084;-69
2023/08/21 06:00:27;;;;;;;19.00;14.93;;;;;;;23.46;nan;100863.56;5022438;28;20022;-69
2023/08/21 06:02:55;;;;;;;22.50;15.48;;;;;;;23.55;nan;100867.16;5016265;28;20112;-70
2023/08/21 06:05:20;;;;;;;24.87;15.67;;;;;;;23.66;nan;100862.38;5023450;28;20025;-68
2023/08/21 06:07:46;;;;;;;22.55;14.90;;;;;;;23.71;nan;100864.16;5026263;28;20033;-69
2023/08/21 06:10:12;;;;;;;16.73;14.80;;;;;;;23.81;nan;100860.47;5024999;28;20391;-69
2023/08/21 06:12:39;;;;;;;26.38;14.63;;;;;;;23.92;nan;100859.94;5025615;28;20464;-69
2023/08/21 06:15:07;;;;;;;16.90;14.05;;;;;;;23.96;nan;100852.06;5025568;28;20029;-67
2023/08/21 06:17:33;;;;;;;20.38;14.02;;;;;;;24.16;nan;100870.44;5025568;28;20112;-68
2023/08/21 06:19:59;;;;;;;17.25;14.15;;;;;;;24.20;nan;100863.31;5026791;28;20809;-68
2023/08/21 06:22:24;;;;;;;20.95;14.00;;;;;;;24.28;nan;100858.31;5028287;28;20392;-67
2023/08/21 06:24:50;;;;;;;17.15;13.68;;;;;;;24.50;nan;100873.72;5023094;28;20036;-69
2023/08/21 06:27:15;;;;;;;23.75;14.50;;;;;;;24.60;nan;100876.94;5024162;28;20041;-68
2023/08/21 06:29:41;;;;;;;17.55;13.48;;;;;;;24.65;nan;100880.59;5022325;28;20661;-68
2023/08/21 06:32:06;;;;;;;15.60;12.70;;;;;;;24.59;nan;100867.28;5025061;28;20025;-68
2023/08/21 06:34:31;;;;;;;16.85;12.88;;;;;;;24.65;nan;100867.94;5026978;28;20961;-70
2023/08/21 06:36:57;;;;;;;18.85;13.20;;;;;;;24.67;nan;100863.03;5026913;28;20025;-69
2023/08/21 06:39:22;;;;;;;14.65;13.00;;;;;;;24.62;nan;100850.50;5024437;28;20041;-69
2023/08/21 06:41:48;;;;;;;17.98;13.38;;;;;;;24.91;nan;100873.47;5019305;28;20029;-68
2023/08/21 06:44:13;;;;;;;15.98;13.20;;;;;;;24.95;nan;100868.22;5020179;28;20033;-68
2023/08/21 06:46:38;;;;;;;16.63;12.20;;;;;;;25.09;nan;100868.13;5023833;28;20395;-70
2023/08/21 06:49:04;;;;;;;19.15;13.70;;;;;;;25.22;nan;100867.28;5024986;28;20029;-68
2023/08/21 06:51:29;;;;;;;21.73;13.38;;;;;;;25.22;nan;100864.56;5023641;28;20037;-69
2023/08/21 06:53:55;;;;;;;14.45;12.07;;;;;;;25.47;nan;100884.63;5023883;28;20033;-67
2023/08/21 06:56:20;;;;;;;13.25;11.75;;;;;;;25.59;nan;100882.09;5023255;28;20060;-70
2023/08/21 06:58:46;;;;;;;15.02;11.88;;;;;;;25.73;nan;100881.97;5022984;28;20038;-67
2023/08/21 07:01:11;;;;;;;14.35;11.73;;;;;;;25.77;nan;100882.16;5024424;28;20112;-71
2023/08/21 07:03:37;;;;;;;15.82;12.32;;;;;;;25.88;nan;100883.44;5023173;28;20502;-71
2023/08/21 07:06:02;;;;;;;17.23;11.10;;;;;;;25.94;nan;100874.09;5024265;28;20025;-71
2023/08/21 07:08:28;;;;;;;18.00;11.35;;;;;;;26.10;nan;100891.41;5006671;28;20037;-68
2023/08/21 07:10:54;;;;;;;13.60;10.75;;;;;;;26.25;nan;100882.03;5021982;28;20037;-69
2023/08/21 07:13:20;;;;;;;19.05;11.82;;;;;;;26.31;nan;100869.97;5022534;28;20021;-69
2023/08/21 07:15:46;;;;;;;16.88;11.70;;;;;;;26.50;nan;100887.72;5021426;28;20028;-67
2023/08/21 07:18:12;;;;;;;18.17;11.18;;;;;;;26.56;nan;100883.78;5020649;28;20036;-70
2023/08/21 07:20:38;;;;;;;13.40;10.45;;;;;;;26.67;nan;100886.91;5025122;28;20025;-70
2023/08/21 07:23:06;;;;;;;12.02;10.55;;;;;;;26.70;nan;100881.66;5023308;28;20034;-68
2023/08/21 07:25:31;;;;;;;13.82;11.02;;;;;;;26.78;nan;100882.75;5023083;28;20113;-71
2023/08/21 07:27:57;;;;;;;17.98;11.27;;;;;;;26.89;nan;100883.22;5021381;28;20156;-67
2023/08/21 07:30:23;;;;;;;13.85;11.40;;;;;;;26.94;nan;100886.53;5020259;28;20051;-68
2023/08/21 07:32:48;;;;;;;12.82;10.90;;;;;;;26.90;nan;100873.97;5022497;28;20026;-69
2023/08/21 07:35:14;;;;;;;15.52;10.98;;;;;;;26.91;nan;100870.97;5025851;28;20398;-69
2023/08/21 07:37:43;;;;;;;13.82;11.10;;;;;;;27.02;nan;100876.00;5024821;28;20458;-68
2023/08/21 07:40:09;;;;;;;15.45;11.70;;;;;;;27.11;nan;100884.88;5021189;28;20052;-70
2023/08/21 07:42:34;;;;;;;16.05;11.25;;;;;;;27.17;nan;100878.16;5019811;28;20025;-72
2023/08/21 07:45:00;;;;;;;11.90;10.50;;;;;;;27.21;nan;100871.00;5023051;28;20041;-67
2023/08/21 07:47:27;;;;;;;15.18;10.68;;;;;;;27.31;nan;100865.22;5023035;28;20017;-67
2023/08/21 07:49:53;;;;;;;16.00;10.68;;;;;;;27.38;nan;100870.13;5023751;28;20033;-72
2023/08/21 07:52:19;;;;;;;16.02;10.52;;;;;;;27.55;nan;100870.00;5022482;28;20103;-68
2023/08/21 07:54:44;;;;;;;11.77;10.57;;;;;;;27.65;nan;100873.44;5021523;28;20479;-68
2023/08/21 07:57:09;;;;;;;13.02;10.68;;;;;;;27.73;nan;100878.03;5022019;28;20029;-68
2023/08/21 07:59:35;;;;;;;11.25;9.82;;;;;;;27.79;nan;100861.25;5038990;28;20083;-68
2023/08/21 08:02:02;;;;;;;15.02;9.82;;;;;;;27.86;nan;100870.78;5020299;28;20502;-68
2023/08/21 08:04:28;;;;;;;13.90;9.82;;;;;;;27.92;nan;100866.78;5019856;28;20113;-68
2023/08/21 08:06:53;;;;;;;12.05;9.68;;;;;;;27.95;nan;100864.19;5038383;28;20122;-67
2023/08/21 08:09:19;;;;;;;11.25;10.07;;;;;;;28.03;nan;100859.81;5023952;28;20018;-67
2023/08/21 08:11:44;;;;;;;11.05;9.50;;;;;;;28.19;nan;100862.72;5022569;28;20080;-68
2023/08/21 08:14:09;;;;;;;12.57;10.35;;;;;;;28.24;nan;100853.59;5022370;28;20072;-69
2023/08/21 08:16:35;;;;;;;14.07;10.50;;;;;;;28.32;nan;100855.41;5019808;28;20037;-68
2023/08/21 08:19:00;;;;;;;11.60;10.40;;;;;;;28.37;nan;100849.78;5019150;28;20472;-68
2023/08/21 08:21:29;;;;;;;12.15;9.45;;;;;;;28.48;nan;100853.69;5019854;28;20132;-67
2023/08/21 08:23:56;;;;;;;17.95;12.23;;;;;;;28.57;nan;100856.31;5022780;28;20430;-68
2023/08/21 08:26:21;;;;;;;14.68;9.73;;;;;;;28.76;nan;100869.31;5016359;28;20029;-68
2023/08/21 08:28:47;;;;;;;13.75;9.82;;;;;;;28.80;nan;100851.25;5019879;28;20381;-66
2023/08/21 08:31:16;;;;;;;15.52;9.18;;;;;;;28.91;nan;100851.59;5033732;28;20029;-69
2023/08/21 08:33:42;;;;;;;15.50;9.05;;;;;;;29.08;nan;100869.59;5021518;28;20407;-74
2023/08/21 08:36:08;;;;;;;12.60;9.52;;;;;;;29.10;nan;100867.34;5017630;28;20033;-74
2023/08/21 08:38:33;;;;;;;11.48;8.82;;;;;;;29.08;nan;100864.97;5021608;28;20515;-74
2023/08/21 08:41:02;;;;;;;14.75;9.40;;;;;;;29.22;nan;100868.13;5021654;28;20021;-74
2023/08/21 08:43:27;;;;;;;11.52;9.35;;;;;;;29.38;nan;100873.66;5024055;28;20148;-69
2023/08/21 08:45:56;;;;;;;11.57;8.48;;;;;;;29.35;nan;100857.25;5022402;28;20550;-68
2023/08/21 08:48:22;;;;;;;16.73;11.15;;;;;;;29.50;nan;100867.44;5019677;28;20025;-68
2023/08/21 08:50:50;;;;;;;12.30;9.95;;;;;;;29.59;nan;100867.28;5034938;28;20045;-68
2023/08/21 08:53:16;;;;;;;10.60;8.70;;;;;;;29.70;nan;100865.72;5023815;28;20033;-67
2023/08/21 08:55:41;;;;;;;11.10;8.48;;;;;;;29.73;nan;100875.88;5022507;28;20037;-69
2023/08/21 08:58:07;;;;;;;10.80;8.38;;;;;;;29.73;nan;100861.50;5037508;28;20033;-67
2023/08/21 09:00:32;;;;;;;13.98;7.78;;;;;;;29.78;nan;100874.84;5020203;28;20025;-67
2023/08/21 09:02:58;;;;;;;11.80;8.30;;;;;;;29.79;nan;100866.38;5021024;28;20045;-68
2023/08/21 09:05:26;;;;;;;8.57;7.65;;;;;;;29.81;nan;100857.84;5021969;28;20055;-66
2023/08/21 09:08:12;;;;;;;9.65;8.45;;;;;;;29.90;nan;100867.44;5021453;28;20029;-66
2023/08/21 09:10:39;;;;;;;15.35;8.93;;;;;;;29.99;nan;100871.97;5035644;28;20048;-67
2023/08/21 09:13:16;;;;;;;10.95;8.65;;;;;;;30.05;nan;100865.13;5019215;28;20218;-68
2023/08/21 09:15:43;;;;;;;9.68;7.90;;;;;;;30.04;nan;100858.13;5022214;28;20068;-69
2023/08/21 09:18:11;;;;;;;211.82;111.80;;;;;;;30.08;nan;100848.16;5021410;28;20484;-73
2023/08/21 09:20:38;;;;;;;42.03;19.52;;;;;;;30.18;nan;100858.50;5017173;28;20033;-68
2023/08/21 09:23:04;;;;;;;12.15;9.38;;;;;;;30.23;nan;100858.25;5037309;28;20041;-68
2023/08/21 09:25:40;;;;;;;12.95;9.00;;;;;;;30.24;nan;100851.72;5021436;28;20538;-66
2023/08/21 09:28:07;;;;;;;11.75;8.18;;;;;;;30.36;nan;100858.22;5019660;28;20042;-72
2023/08/21 09:30:54;;;;;;;11.02;8.43;;;;;;;30.44;nan;100846.41;5020903;28;20480;-71
2023/08/21 09:33:21;;;;;;;9.73;8.07;;;;;;;30.45;nan;100848.78;5020251;28;20025;-72
2023/08/21 09:35:47;;;;;;;9.18;8.23;;;;;;;30.50;nan;100837.66;5021976;28;20041;-72
2023/08/21 09:38:14;;;;;;;12.32;8.68;;;;;;;30.65;nan;100846.97;5023165;28;20033;-68
2023/08/21 09:40:44;;;;;;;10.23;8.32;;;;;;;30.68;nan;100851.69;5022755;28;20064;-72
2023/08/21 09:43:13;;;;;;;9.35;8.20;;;;;;;30.58;nan;100830.47;5022592;28;20048;-71
2023/08/21 09:45:39;;;;;;;10.77;8.35;;;;;;;30.76;nan;100841.00;5022900;28;20104;-71
2023/08/21 09:48:05;;;;;;;9.32;8.35;;;;;;;30.81;nan;100840.72;5021858;28;20116;-69
2023/08/21 09:50:32;;;;;;;11.32;8.30;;;;;;;30.83;nan;100835.72;5025788;28;20055;-71
2023/08/21 09:52:58;;;;;;;11.30;7.75;;;;;;;30.91;nan;100832.88;5021293;28;20036;-68
2023/08/21 09:55:26;;;;;;;8.55;7.75;;;;;;;30.97;nan;100829.88;5026121;28;20581;-72
2023/08/21 09:57:58;;;;;;;10.60;7.60;;;;;;;31.04;nan;100830.81;5025762;28;20776;-72
2023/08/21 10:00:34;;;;;;;10.50;8.35;;;;;;;31.07;nan;100826.59;5023498;28;20116;-72
2023/08/21 10:03:09;;;;;;;9.20;7.90;;;;;;;31.06;nan;100819.59;5026370;28;20036;-72
2023/08/21 10:05:36;;;;;;;11.98;7.38;;;;;;;31.20;nan;100824.53;5027882;28;20105;-71
2023/08/21 10:08:04;;;;;;;7.72;6.90;;;;;;;31.27;nan;100828.22;5025465;28;20627;-71
2023/08/21 10:10:37;;;;;;;7.80;7.00;;;;;;;31.25;nan;100824.28;5026655;28;20161;-71
2023/08/21 10:13:04;;;;;;;7.30;6.60;;;;;;;31.31;nan;100826.34;5027583;28;20029;-71
2023/08/21 10:15:33;;;;;;;10.65;6.63;;;;;;;31.35;nan;100827.22;5023369;28;20072;-72
2023/08/21 10:18:24;;;;;;;8.77;7.05;;;;;;;31.37;nan;100827.66;5026492;28;20512;-71
2023/08/21 10:20:51;;;;;;;8.00;6.93;;;;;;;31.41;nan;100827.75;5025279;28;20479;-71
2023/08/21 10:23:29;;;;;;;7.20;6.38;;;;;;;31.47;nan;100822.84;5024612;28;20096;-74
2023/08/21 10:25:58;;;;;;;;;;;;;;;31.50;nan;100828.34;5026131;28;20046;-73
2023/08/21 10:28:24;;;;;;;7.93;6.60;;;;;;;31.46;nan;100813.91;5023291;28;20584;-71
2023/08/21 10:30:49;;;;;;;7.15;6.45;;;;;;;31.56;nan;100812.53;5026023;28;20021;-72
2023/08/21 10:33:15;;;;;;;7.13;6.40;;;;;;;31.57;nan;100805.94;5023893;28;20026;-71
2023/08/21 10:35:40;;;;;;;9.52;6.22;;;;;;;31.53;nan;100788.72;5022074;28;20026;-72
2023/08/21 10:38:15;;;;;;;9.68;6.78;;;;;;;31.74;nan;100815.59;5026796;28;20037;-72
2023/08/21 10:40:41;;;;;;;7.10;6.07;;;;;;;31.71;nan;100816.34;5023238;28;20033;-72
2023/08/21 10:43:39;;;;;;;6.95;6.10;;;;;;;31.81;nan;100817.69;5038211;28;20503;-72
2023/08/21 10:46:05;;;;;;;6.93;6.30;;;;;;;31.79;nan;100807.16;5023949;28;20030;-72
2023/08/21 10:48:30;;;;;;;7.70;6.57;;;;;;;31.86;nan;100814.66;5024055;28;20030;-72
2023/08/21 10:50:58;;;;;;;8.55;7.13;;;;;;;31.86;nan;100807.28;5024035;28;20029;-72
2023/08/21 10:53:24;;;;;;;7.13;6.43;;;;;;;31.87;nan;100799.91;5023884;28;20840;-70
2023/08/21 10:56:01;;;;;;;8.25;6.55;;;;;;;31.96;nan;100809.44;5025858;28;20036;-71
2023/08/21 10:58:27;;;;;;;8.57;5.25;;;;;;;31.98;nan;100796.25;5041882;28;20518;-72
2023/08/21 11:00:59;;;;;;;7.80;5.78;;;;;;;32.01;nan;100811.09;5025232;28;20037;-73
2023/08/21 11:03:24;;;;;;;6.43;5.32;;;;;;;31.97;nan;100791.97;5023359;28;20376;-73
2023/08/21 11:06:07;;;;;;;9.35;5.80;;;;;;;32.02;nan;100782.72;5025667;28;20047;-73
2023/08/21 11:08:34;;;;;;;6.70;5.97;;;;;;;32.11;nan;100783.28;5024667;28;20021;-71
2023/08/21 11:11:03;;;;;;;7.50;5.97;;;;;;;32.21;nan;100799.00;5023887;28;20025;-72
2023/08/21 11:13:29;;;;;;;6.95;5.93;;;;;;;32.24;nan;100796.72;5038078;28;20037;-71
2023/08/21 11:16:02;;;;;;;8.50;6.15;;;;;;;32.25;nan;100793.63;5021957;28;20029;-72
2023/08/21 11:18:36;;;;;;;12.90;7.03;;;;;;;32.32;nan;100787.50;5025891;28;20480;-72
2023/08/21 11:21:09;;;;;;;8.15;6.40;;;;;;;32.30;nan;100784.34;5024044;28;20476;-72
2023/08/21 11:23:37;;;;;;;6.93;6.18;;;;;;;32.31;nan;100775.81;5036202;28;20032;-71
2023/08/21 11:26:03;;;;;;;7.20;6.00;;;;;;;32.38;nan;100792.28;5042092;28;20028;-71
2023/08/21 11:28:30;;;;;;;6.50;5.80;;;;;;;32.42;nan;100787.69;5021615;28;20507;-72